sensor_id;sensor_type;location;lat;lon;timestamp;temperature;humidity
8231;DHT22;4156;50.908;6.974;2023-06-26T00:01:15;27.30;99.90
8231;DHT22;4156;50.908;6.974;2023-06-26T00:03:40;27.30;99.90
8231;DHT22;4156;50.908;6.974;2023-06-26T00:06:06;27.30;99.90
8231;DHT22;4156;50.908;6.974;2023-06-26T00:08:31;27.20;99.90
8231;DHT22;4156;50.908;6.974;2023-06-26T00:10:57;27.10;99.90
8231;DHT22;4156;50.908;6.974;2023-06-26T00:13:23;27.10;99.90
8231;DHT22;4156;50.908;6.974;2023-06-26T00:15:49;27.10;99.90
8231;DHT22;4156;50.908;6.974;2023-06-26T00:18:15;27.00;99.90
8231;DHT22;4156;50.908;6.974;2023-06-26T00:20:40;27.10;99.90
8231;DHT22;4156;50.908;6.974;2023-06-26T00:23:06;27.00;99.90
8231;DHT22;4156;50.908;6.974;2023-06-26T00:25:33;26.90;99.90
8231;DHT22;4156;50.908;6.974;2023-06-26T00:27:59;26.90;99.90
8231;DHT22;4156;50.908;6.974;2023-06-26T00:30:25;26.80;99.90
8231;DHT22;4156;50.908;6.974;2023-06-26T00:32:50;26.90;99.90
8231;DHT22;4156;50.908;6.974;2023-06-26T00:35:17;26.80;99.90
8231;DHT22;4156;50.908;6.974;2023-06-26T00:37:42;26.80;99.90
8231;DHT22;4156;50.908;6.974;2023-06-26T00:40:08;26.80;99.90
8231;DHT22;4156;50.908;6.974;2023-06-26T00:42:34;26.70;99.90
8231;DHT22;4156;50.908;6.974;2023-06-26T00:45:00;26.70;99.90
8231;DHT22;4156;50.908;6.974;2023-06-26T00:47:26;26.60;99.90
8231;DHT22;4156;50.908;6.974;2023-06-26T00:49:52;26.60;99.90
8231;DHT22;4156;50.908;6.974;2023-06-26T00:52:18;26.60;99.90
8231;DHT22;4156;50.908;6.974;2023-06-26T00:54:44;26.70;99.90
8231;DHT22;4156;50.908;6.974;2023-06-26T00:57:09;26.60;99.90
8231;DHT22;4156;50.908;6.974;2023-06-26T00:59:35;26.60;99.90
8231;DHT22;4156;50.908;6.974;2023-06-26T01:02:01;26.50;99.90
8231;DHT22;4156;50.908;6.974;2023-06-26T01:04:27;26.50;99.90
8231;DHT22;4156;50.908;6.974;2023-06-26T01:06:53;26.50;99.90
8231;DHT22;4156;50.908;6.974;2023-06-26T01:09:19;26.50;99.90
8231;DHT22;4156;50.908;6.974;2023-06-26T01:11:46;26.50;99.90
8231;DHT22;4156;50.908;6.974;2023-06-26T01:14:12;26.50;99.90
8231;DHT22;4156;50.908;6.974;2023-06-26T01:16:39;26.50;99.90
8231;DHT22;4156;50.908;6.974;2023-06-26T01:19:24;26.40;99.90
8231;DHT22;4156;50.908;6.974;2023-06-26T01:21:59;26.40;99.90
8231;DHT22;4156;50.908;6.974;2023-06-26T01:24:33;26.40;99.90
8231;DHT22;4156;50.908;6.974;2023-06-26T01:27:03;26.40;99.90
8231;DHT22;4156;50.908;6.974;2023-06-26T01:29:31;26.40;99.90
8231;DHT22;4156;50.908;6.974;2023-06-26T01:31:57;26.30;99.90
8231;DHT22;4156;50.908;6.974;2023-06-26T01:34:23;26.30;99.90
8231;DHT22;4156;50.908;6.974;2023-06-26T01:36:48;26.30;99.90
8231;DHT22;4156;50.908;6.974;2023-06-26T01:39:15;26.30;99.90
8231;DHT22;4156;50.908;6.974;2023-06-26T01:41:41;26.20;99.90
8231;DHT22;4156;50.908;6.974;2023-06-26T01:47:05;26.20;99.90
8231;DHT22;4156;50.908;6.974;2023-06-26T01:49:47;26.10;99.90
8231;DHT22;4156;50.908;6.974;2023-06-26T01:52:31;26.10;99.90
8231;DHT22;4156;50.908;6.974;2023-06-26T01:55:22;26.00;99.90
8231;DHT22;4156;50.908;6.974;2023-06-26T01:57:52;26.00;99.90
8231;DHT22;4156;50.908;6.974;2023-06-26T02:00:19;25.90;99.90
8231;DHT22;4156;50.908;6.974;2023-06-26T02:02:45;26.00;99.90
8231;DHT22;4156;50.908;6.974;2023-06-26T02:05:12;26.00;99.90
8231;DHT22;4156;50.908;6.974;2023-06-26T02:07:38;26.00;99.90
8231;DHT22;4156;50.908;6.974;2023-06-26T02:10:03;25.90;99.90
8231;DHT22;4156;50.908;6.974;2023-06-26T02:12:29;25.90;99.90
8231;DHT22;4156;50.908;6.974;2023-06-26T02:14:55;25.90;99.90
8231;DHT22;4156;50.908;6.974;2023-06-26T02:17:20;25.80;99.90
8231;DHT22;4156;50.908;6.974;2023-06-26T02:19:46;25.90;99.90
8231;DHT22;4156;50.908;6.974;2023-06-26T02:22:15;25.90;99.90
8231;DHT22;4156;50.908;6.974;2023-06-26T02:24:41;25.80;99.90
8231;DHT22;4156;50.908;6.974;2023-06-26T02:27:07;25.80;99.90
8231;DHT22;4156;50.908;6.974;2023-06-26T02:29:32;25.60;99.90
8231;DHT22;4156;50.908;6.974;2023-06-26T02:31:58;25.70;99.90
8231;DHT22;4156;50.908;6.974;2023-06-26T02:34:23;25.70;99.90
8231;DHT22;4156;50.908;6.974;2023-06-26T02:36:49;25.70;99.90
8231;DHT22;4156;50.908;6.974;2023-06-26T02:39:15;25.70;99.90
8231;DHT22;4156;50.908;6.974;2023-06-26T02:41:40;25.60;99.90
8231;DHT22;4156;50.908;6.974;2023-06-26T02:44:06;25.60;99.90
8231;DHT22;4156;50.908;6.974;2023-06-26T02:46:32;25.60;99.90
8231;DHT22;4156;50.908;6.974;2023-06-26T02:48:59;25.60;99.90
8231;DHT22;4156;50.908;6.974;2023-06-26T02:51:24;25.50;99.90
8231;DHT22;4156;50.908;6.974;2023-06-26T02:53:50;25.50;99.90
8231;DHT22;4156;50.908;6.974;2023-06-26T02:56:15;25.40;99.90
8231;DHT22;4156;50.908;6.974;2023-06-26T02:58:41;25.40;99.90
8231;DHT22;4156;50.908;6.974;2023-06-26T03:01:06;25.40;99.90
8231;DHT22;4156;50.908;6.974;2023-06-26T03:03:32;25.30;99.90
8231;DHT22;4156;50.908;6.974;2023-06-26T03:06:06;25.30;99.90
8231;DHT22;4156;50.908;6.974;2023-06-26T03:08:37;25.30;99.90
8231;DHT22;4156;50.908;6.974;2023-06-26T03:11:03;25.30;99.90
8231;DHT22;4156;50.908;6.974;2023-06-26T03:13:28;25.30;99.90
8231;DHT22;4156;50.908;6.974;2023-06-26T03:15:54;25.30;99.90
8231;DHT22;4156;50.908;6.974;2023-06-26T03:18:19;25.40;99.90
8231;DHT22;4156;50.908;6.974;2023-06-26T03:20:45;25.20;99.90
8231;DHT22;4156;50.908;6.974;2023-06-26T03:23:11;25.20;99.90
8231;DHT22;4156;50.908;6.974;2023-06-26T03:25:36;25.10;99.90
8231;DHT22;4156;50.908;6.974;2023-06-26T03:28:02;25.20;99.90
8231;DHT22;4156;50.908;6.974;2023-06-26T03:30:27;25.10;99.90
8231;DHT22;4156;50.908;6.974;2023-06-26T03:32:53;25.20;99.90
8231;DHT22;4156;50.908;6.974;2023-06-26T03:35:18;25.20;99.90
8231;DHT22;4156;50.908;6.974;2023-06-26T03:37:44;25.20;99.90
8231;DHT22;4156;50.908;6.974;2023-06-26T03:40:10;25.20;99.90
8231;DHT22;4156;50.908;6.974;2023-06-26T03:42:35;25.30;99.90
8231;DHT22;4156;50.908;6.974;2023-06-26T03:45:01;25.30;99.90
8231;DHT22;4156;50.908;6.974;2023-06-26T03:47:26;25.30;99.90
8231;DHT22;4156;50.908;6.974;2023-06-26T03:49:52;25.40;99.90
8231;DHT22;4156;50.908;6.974;2023-06-26T03:52:17;25.40;99.90
8231;DHT22;4156;50.908;6.974;2023-06-26T03:54:43;25.60;99.90
8231;DHT22;4156;50.908;6.974;2023-06-26T03:57:08;25.40;99.90
8231;DHT22;4156;50.908;6.974;2023-06-26T03:59:34;25.40;99.90
8231;DHT22;4156;50.908;6.974;2023-06-26T04:01:59;25.40;99.90
8231;DHT22;4156;50.908;6.974;2023-06-26T04:04:25;25.40;99.90
8231;DHT22;4156;50.908;6.974;2023-06-26T04:06:50;25.40;99.90
8231;DHT22;4156;50.908;6.974;2023-06-26T04:09:16;25.40;99.90
8231;DHT22;4156;50.908;6.974;2023-06-26T04:11:42;25.30;99.90
8231;DHT22;4156;50.908;6.974;2023-06-26T04:14:07;25.40;99.90
8231;DHT22;4156;50.908;6.974;2023-06-26T04:16:33;25.40;99.90
8231;DHT22;4156;50.908;6.974;2023-06-26T04:18:58;25.40;99.90
8231;DHT22;4156;50.908;6.974;2023-06-26T04:21:24;25.30;99.90
8231;DHT22;4156;50.908;6.974;2023-06-26T04:23:52;25.40;99.90
8231;DHT22;4156;50.908;6.974;2023-06-26T04:26:18;25.40;99.90
8231;DHT22;4156;50.908;6.974;2023-06-26T04:28:43;25.50;99.90
8231;DHT22;4156;50.908;6.974;2023-06-26T04:31:09;25.40;99.90
8231;DHT22;4156;50.908;6.974;2023-06-26T04:33:36;25.50;99.90
8231;DHT22;4156;50.908;6.974;2023-06-26T04:36:03;25.30;99.90
8231;DHT22;4156;50.908;6.974;2023-06-26T04:38:29;25.60;99.90
8231;DHT22;4156;50.908;6.974;2023-06-26T04:40:55;25.60;99.90
8231;DHT22;4156;50.908;6.974;2023-06-26T04:43:20;25.60;99.90
8231;DHT22;4156;50.908;6.974;2023-06-26T04:45:46;25.60;99.90
8231;DHT22;4156;50.908;6.974;2023-06-26T04:48:12;25.70;99.90
8231;DHT22;4156;50.908;6.974;2023-06-26T04:50:37;25.70;99.90
8231;DHT22;4156;50.908;6.974;2023-06-26T04:53:03;25.60;99.90
8231;DHT22;4156;50.908;6.974;2023-06-26T04:55:28;25.70;99.90
8231;DHT22;4156;50.908;6.974;2023-06-26T04:57:54;25.80;99.90
8231;DHT22;4156;50.908;6.974;2023-06-26T05:00:20;25.70;99.90
8231;DHT22;4156;50.908;6.974;2023-06-26T05:02:46;25.80;99.90
8231;DHT22;4156;50.908;6.974;2023-06-26T05:05:11;25.80;99.90
8231;DHT22;4156;50.908;6.974;2023-06-26T05:07:38;25.70;99.90
8231;DHT22;4156;50.908;6.974;2023-06-26T05:10:04;25.70;99.90
8231;DHT22;4156;50.908;6.974;2023-06-26T05:12:29;25.70;99.90
8231;DHT22;4156;50.908;6.974;2023-06-26T05:14:55;25.70;99.90
8231;DHT22;4156;50.908;6.974;2023-06-26T05:17:20;25.70;99.90
8231;DHT22;4156;50.908;6.974;2023-06-26T05:19:46;25.80;99.90
8231;DHT22;4156;50.908;6.974;2023-06-26T05:22:13;25.80;99.90
8231;DHT22;4156;50.908;6.974;2023-06-26T05:24:39;25.80;99.90
8231;DHT22;4156;50.908;6.974;2023-06-26T05:27:05;25.80;99.90
8231;DHT22;4156;50.908;6.974;2023-06-26T05:29:31;25.80;99.90
8231;DHT22;4156;50.908;6.974;2023-06-26T05:31:58;25.80;99.90
8231;DHT22;4156;50.908;6.974;2023-06-26T05:34:24;25.70;99.90
8231;DHT22;4156;50.908;6.974;2023-06-26T05:36:57;25.70;99.90
8231;DHT22;4156;50.908;6.974;2023-06-26T05:39:23;25.70;99.90
8231;DHT22;4156;50.908;6.974;2023-06-26T05:41:49;25.70;99.90
8231;DHT22;4156;50.908;6.974;2023-06-26T05:44:15;25.70;99.90
8231;DHT22;4156;50.908;6.974;2023-06-26T05:46:41;25.80;99.90
8231;DHT22;4156;50.908;6.974;2023-06-26T05:49:06;25.70;99.90
8231;DHT22;4156;50.908;6.974;2023-06-26T05:51:32;25.80;99.90
8231;DHT22;4156;50.908;6.974;2023-06-26T05:53:58;25.70;99.90
8231;DHT22;4156;50.908;6.974;2023-06-26T05:56:23;25.80;99.90
8231;DHT22;4156;50.908;6.974;2023-06-26T05:58:50;25.80;99.90
8231;DHT22;4156;50.908;6.974;2023-06-26T06:01:16;25.70;99.90
8231;DHT22;4156;50.908;6.974;2023-06-26T06:03:42;25.70;99.90
8231;DHT22;4156;50.908;6.974;2023-06-26T06:06:07;25.60;99.90
8231;DHT22;4156;50.908;6.974;2023-06-26T06:08:33;25.60;99.90
8231;DHT22;4156;50.908;6.974;2023-06-26T06:11:00;25.60;99.90
8231;DHT22;4156;50.908;6.974;2023-06-26T06:13:26;25.60;99.90
8231;DHT22;4156;50.908;6.974;2023-06-26T06:15:51;25.70;99.90
8231;DHT22;4156;50.908;6.974;2023-06-26T06:18:17;25.70;99.90
8231;DHT22;4156;50.908;6.974;2023-06-26T06:20:42;25.70;99.90
8231;DHT22;4156;50.908;6.974;2023-06-26T06:23:08;25.70;99.90
8231;DHT22;4156;50.908;6.974;2023-06-26T06:25:33;25.70;99.90
8231;DHT22;4156;50.908;6.974;2023-06-26T06:27:59;25.70;99.90
8231;DHT22;4156;50.908;6.974;2023-06-26T06:30:24;25.70;99.90
8231;DHT22;4156;50.908;6.974;2023-06-26T06:32:50;25.70;99.90
8231;DHT22;4156;50.908;6.974;2023-06-26T06:35:21;25.70;99.90
8231;DHT22;4156;50.908;6.974;2023-06-26T06:37:46;25.70;99.90
8231;DHT22;4156;50.908;6.974;2023-06-26T06:40:12;25.60;99.90
8231;DHT22;4156;50.908;6.974;2023-06-26T06:42:38;25.60;99.90
8231;DHT22;4156;50.908;6.974;2023-06-26T06:45:05;25.50;99.90
8231;DHT22;4156;50.908;6.974;2023-06-26T06:47:32;25.50;99.90
8231;DHT22;4156;50.908;6.974;2023-06-26T06:49:58;25.50;99.90
8231;DHT22;4156;50.908;6.974;2023-06-26T06:52:24;25.50;99.90
8231;DHT22;4156;50.908;6.974;2023-06-26T06:54:57;25.40;99.90
8231;DHT22;4156;50.908;6.974;2023-06-26T06:57:24;25.50;99.90
8231;DHT22;4156;50.908;6.974;2023-06-26T06:59:50;25.50;99.90
8231;DHT22;4156;50.908;6.974;2023-06-26T07:02:19;25.50;99.90
8231;DHT22;4156;50.908;6.974;2023-06-26T07:04:45;25.50;99.90
8231;DHT22;4156;50.908;6.974;2023-06-26T07:07:11;25.60;99.90
8231;DHT22;4156;50.908;6.974;2023-06-26T07:09:39;25.60;99.90
8231;DHT22;4156;50.908;6.974;2023-06-26T07:12:04;25.70;99.90
8231;DHT22;4156;50.908;6.974;2023-06-26T07:14:30;25.80;99.90
8231;DHT22;4156;50.908;6.974;2023-06-26T07:16:56;25.80;99.90
8231;DHT22;4156;50.908;6.974;2023-06-26T07:19:21;25.90;99.90
8231;DHT22;4156;50.908;6.974;2023-06-26T07:21:47;25.90;99.90
8231;DHT22;4156;50.908;6.974;2023-06-26T07:24:12;25.90;99.90
8231;DHT22;4156;50.908;6.974;2023-06-26T07:26:38;25.90;99.90
8231;DHT22;4156;50.908;6.974;2023-06-26T07:29:03;26.00;99.90
8231;DHT22;4156;50.908;6.974;2023-06-26T07:31:29;26.00;99.90
8231;DHT22;4156;50.908;6.974;2023-06-26T07:33:54;26.10;99.90
8231;DHT22;4156;50.908;6.974;2023-06-26T07:36:20;26.00;99.90
8231;DHT22;4156;50.908;6.974;2023-06-26T07:38:46;26.00;99.90
8231;DHT22;4156;50.908;6.974;2023-06-26T07:41:11;26.10;99.90
8231;DHT22;4156;50.908;6.974;2023-06-26T07:43:36;26.10;99.90
8231;DHT22;4156;50.908;6.974;2023-06-26T07:46:02;26.10;99.90
8231;DHT22;4156;50.908;6.974;2023-06-26T07:48:27;26.10;99.90
8231;DHT22;4156;50.908;6.974;2023-06-26T07:50:53;26.10;99.90
8231;DHT22;4156;50.908;6.974;2023-06-26T07:53:19;26.00;99.90
8231;DHT22;4156;50.908;6.974;2023-06-26T07:55:45;26.10;99.90
8231;DHT22;4156;50.908;6.974;2023-06-26T07:58:10;26.10;99.90
8231;DHT22;4156;50.908;6.974;2023-06-26T08:00:36;26.20;99.90
8231;DHT22;4156;50.908;6.974;2023-06-26T08:03:01;26.30;99.90
8231;DHT22;4156;50.908;6.974;2023-06-26T08:05:27;26.30;99.90
8231;DHT22;4156;50.908;6.974;2023-06-26T08:07:52;26.40;99.90
8231;DHT22;4156;50.908;6.974;2023-06-26T08:10:18;26.40;99.90
8231;DHT22;4156;50.908;6.974;2023-06-26T08:12:43;26.40;99.90
8231;DHT22;4156;50.908;6.974;2023-06-26T08:15:11;26.50;99.90
8231;DHT22;4156;50.908;6.974;2023-06-26T08:17:37;26.50;99.90
8231;DHT22;4156;50.908;6.974;2023-06-26T08:20:04;26.50;99.90
8231;DHT22;4156;50.908;6.974;2023-06-26T08:22:30;26.50;99.90
8231;DHT22;4156;50.908;6.974;2023-06-26T08:24:55;26.60;99.90
8231;DHT22;4156;50.908;6.974;2023-06-26T08:27:21;26.60;99.90
8231;DHT22;4156;50.908;6.974;2023-06-26T08:29:47;26.60;99.90
8231;DHT22;4156;50.908;6.974;2023-06-26T08:32:13;26.60;99.90
8231;DHT22;4156;50.908;6.974;2023-06-26T08:34:38;26.70;99.90
8231;DHT22;4156;50.908;6.974;2023-06-26T08:37:04;26.70;99.90
8231;DHT22;4156;50.908;6.974;2023-06-26T08:39:29;26.60;99.90
8231;DHT22;4156;50.908;6.974;2023-06-26T08:41:55;26.60;99.90
8231;DHT22;4156;50.908;6.974;2023-06-26T08:44:21;26.70;99.90
8231;DHT22;4156;50.908;6.974;2023-06-26T08:46:50;26.60;99.90
8231;DHT22;4156;50.908;6.974;2023-06-26T08:49:28;26.70;99.90
8231;DHT22;4156;50.908;6.974;2023-06-26T08:52:02;26.70;99.90
8231;DHT22;4156;50.908;6.974;2023-06-26T08:54:36;26.70;99.90
8231;DHT22;4156;50.908;6.974;2023-06-26T08:57:02;26.70;99.90
8231;DHT22;4156;50.908;6.974;2023-06-26T08:59:28;26.60;99.90
8231;DHT22;4156;50.908;6.974;2023-06-26T09:01:54;26.60;99.90
8231;DHT22;4156;50.908;6.974;2023-06-26T09:04:19;26.60;99.90
8231;DHT22;4156;50.908;6.974;2023-06-26T09:06:45;26.70;99.90
8231;DHT22;4156;50.908;6.974;2023-06-26T09:09:11;26.70;99.90
8231;DHT22;4156;50.908;6.974;2023-06-26T09:11:36;26.70;99.90
8231;DHT22;4156;50.908;6.974;2023-06-26T09:14:02;26.60;99.90
8231;DHT22;4156;50.908;6.974;2023-06-26T09:16:31;26.60;99.90
8231;DHT22;4156;50.908;6.974;2023-06-26T09:18:56;26.60;99.90
8231;DHT22;4156;50.908;6.974;2023-06-26T09:21:22;26.60;99.90
8231;DHT22;4156;50.908;6.974;2023-06-26T09:23:49;26.70;99.90
8231;DHT22;4156;50.908;6.974;2023-06-26T09:26:16;26.70;99.90
8231;DHT22;4156;50.908;6.974;2023-06-26T09:28:42;26.70;99.90
8231;DHT22;4156;50.908;6.974;2023-06-26T09:31:08;26.70;99.90
8231;DHT22;4156;50.908;6.974;2023-06-26T09:33:36;26.70;99.90
8231;DHT22;4156;50.908;6.974;2023-06-26T09:36:07;26.70;99.90
8231;DHT22;4156;50.908;6.974;2023-06-26T09:38:34;26.70;99.90
8231;DHT22;4156;50.908;6.974;2023-06-26T09:41:00;26.70;99.90
8231;DHT22;4156;50.908;6.974;2023-06-26T09:43:26;26.80;99.90
8231;DHT22;4156;50.908;6.974;2023-06-26T09:45:52;26.70;99.90
8231;DHT22;4156;50.908;6.974;2023-06-26T09:48:19;26.70;99.90
8231;DHT22;4156;50.908;6.974;2023-06-26T09:50:46;26.80;99.90
8231;DHT22;4156;50.908;6.974;2023-06-26T09:53:12;26.80;99.90
8231;DHT22;4156;50.908;6.974;2023-06-26T09:55:39;26.80;99.90
8231;DHT22;4156;50.908;6.974;2023-06-26T09:58:10;26.80;99.90
8231;DHT22;4156;50.908;6.974;2023-06-26T10:00:42;26.80;99.90
8231;DHT22;4156;50.908;6.974;2023-06-26T10:03:09;26.80;99.90
8231;DHT22;4156;50.908;6.974;2023-06-26T10:05:35;26.80;99.90
8231;DHT22;4156;50.908;6.974;2023-06-26T10:08:01;26.80;99.90
8231;DHT22;4156;50.908;6.974;2023-06-26T10:10:27;26.80;99.90
8231;DHT22;4156;50.908;6.974;2023-06-26T10:12:59;26.80;99.90
8231;DHT22;4156;50.908;6.974;2023-06-26T10:15:27;26.80;99.90
8231;DHT22;4156;50.908;6.974;2023-06-26T10:17:56;26.80;99.90
8231;DHT22;4156;50.908;6.974;2023-06-26T10:20:21;26.80;99.90
8231;DHT22;4156;50.908;6.974;2023-06-26T10:22:48;26.80;99.90
8231;DHT22;4156;50.908;6.974;2023-06-26T10:25:18;26.80;99.90
8231;DHT22;4156;50.908;6.974;2023-06-26T10:27:53;26.80;99.90
8231;DHT22;4156;50.908;6.974;2023-06-26T10:30:24;26.80;99.90
8231;DHT22;4156;50.908;6.974;2023-06-26T10:32:52;26.80;99.90
8231;DHT22;4156;50.908;6.974;2023-06-26T10:35:18;26.80;99.90
8231;DHT22;4156;50.908;6.974;2023-06-26T10:37:46;26.70;99.90
8231;DHT22;4156;50.908;6.974;2023-06-26T10:40:13;26.70;99.90
8231;DHT22;4156;50.908;6.974;2023-06-26T10:42:39;26.70;99.90
8231;DHT22;4156;50.908;6.974;2023-06-26T10:45:15;26.70;99.90
8231;DHT22;4156;50.908;6.974;2023-06-26T10:47:42;26.80;99.90
8231;DHT22;4156;50.908;6.974;2023-06-26T10:50:23;26.80;99.90
8231;DHT22;4156;50.908;6.974;2023-06-26T10:55:33;26.80;99.90
8231;DHT22;4156;50.908;6.974;2023-06-26T10:58:00;26.90;99.90
8231;DHT22;4156;50.908;6.974;2023-06-26T11:00:27;26.80;99.90
8231;DHT22;4156;50.908;6.974;2023-06-26T11:02:53;26.80;99.90
8231;DHT22;4156;50.908;6.974;2023-06-26T11:05:29;26.80;99.90
8231;DHT22;4156;50.908;6.974;2023-06-26T11:08:07;26.90;99.90
8231;DHT22;4156;50.908;6.974;2023-06-26T11:10:50;26.90;99.90
8231;DHT22;4156;50.908;6.974;2023-06-26T11:13:17;26.90;99.90
8231;DHT22;4156;50.908;6.974;2023-06-26T11:15:44;27.00;99.90
8231;DHT22;4156;50.908;6.974;2023-06-26T11:18:10;27.00;99.90
8231;DHT22;4156;50.908;6.974;2023-06-26T11:20:36;27.00;99.90
8231;DHT22;4156;50.908;6.974;2023-06-26T11:23:03;26.90;99.90
8231;DHT22;4156;50.908;6.974;2023-06-26T11:25:29;26.90;99.90
8231;DHT22;4156;50.908;6.974;2023-06-26T11:27:55;26.80;99.90
8231;DHT22;4156;50.908;6.974;2023-06-26T11:30:25;26.90;99.90
8231;DHT22;4156;50.908;6.974;2023-06-26T11:32:51;26.90;99.90
8231;DHT22;4156;50.908;6.974;2023-06-26T11:35:23;26.90;99.90
8231;DHT22;4156;50.908;6.974;2023-06-26T11:38:02;26.90;99.90
8231;DHT22;4156;50.908;6.974;2023-06-26T11:40:35;26.90;99.90
8231;DHT22;4156;50.908;6.974;2023-06-26T11:43:02;27.00;99.90
8231;DHT22;4156;50.908;6.974;2023-06-26T11:45:29;27.00;99.90
8231;DHT22;4156;50.908;6.974;2023-06-26T11:47:56;26.90;99.90
8231;DHT22;4156;50.908;6.974;2023-06-26T11:50:22;26.90;99.90
8231;DHT22;4156;50.908;6.974;2023-06-26T11:52:58;26.80;99.90
8231;DHT22;4156;50.908;6.974;2023-06-26T11:55:25;26.90;99.90
8231;DHT22;4156;50.908;6.974;2023-06-26T11:57:54;26.80;99.90
8231;DHT22;4156;50.908;6.974;2023-06-26T12:00:21;26.90;99.90
8231;DHT22;4156;50.908;6.974;2023-06-26T12:02:47;26.80;99.90
8231;DHT22;4156;50.908;6.974;2023-06-26T12:05:14;26.80;99.90
8231;DHT22;4156;50.908;6.974;2023-06-26T12:07:45;26.80;99.90
8231;DHT22;4156;50.908;6.974;2023-06-26T12:10:13;26.80;99.90
8231;DHT22;4156;50.908;6.974;2023-06-26T12:12:40;26.80;99.90
8231;DHT22;4156;50.908;6.974;2023-06-26T12:15:07;26.90;99.90
8231;DHT22;4156;50.908;6.974;2023-06-26T12:17:33;26.80;99.90
8231;DHT22;4156;50.908;6.974;2023-06-26T12:19:58;26.90;99.90
8231;DHT22;4156;50.908;6.974;2023-06-26T12:22:24;26.90;99.90
8231;DHT22;4156;50.908;6.974;2023-06-26T12:24:58;26.90;99.90
8231;DHT22;4156;50.908;6.974;2023-06-26T12:27:25;26.80;99.90
8231;DHT22;4156;50.908;6.974;2023-06-26T12:29:52;26.80;99.90
8231;DHT22;4156;50.908;6.974;2023-06-26T12:32:19;26.80;99.90
8231;DHT22;4156;50.908;6.974;2023-06-26T12:34:48;26.80;99.90
8231;DHT22;4156;50.908;6.974;2023-06-26T12:37:15;26.80;99.90
8231;DHT22;4156;50.908;6.974;2023-06-26T12:39:54;26.80;99.90
8231;DHT22;4156;50.908;6.974;2023-06-26T12:42:22;26.90;99.90
8231;DHT22;4156;50.908;6.974;2023-06-26T12:44:49;26.90;99.90
8231;DHT22;4156;50.908;6.974;2023-06-26T12:47:15;26.90;99.90
8231;DHT22;4156;50.908;6.974;2023-06-26T12:49:43;27.00;99.90
8231;DHT22;4156;50.908;6.974;2023-06-26T12:52:10;27.00;99.90
8231;DHT22;4156;50.908;6.974;2023-06-26T12:54:38;26.90;99.90
8231;DHT22;4156;50.908;6.974;2023-06-26T12:57:04;26.90;99.90
8231;DHT22;4156;50.908;6.974;2023-06-26T12:59:31;26.90;99.90
8231;DHT22;4156;50.908;6.974;2023-06-26T13:01:57;26.90;99.90
8231;DHT22;4156;50.908;6.974;2023-06-26T13:04:23;26.90;99.90
8231;DHT22;4156;50.908;6.974;2023-06-26T13:06:49;26.90;99.90
8231;DHT22;4156;50.908;6.974;2023-06-26T13:09:15;26.80;99.90
8231;DHT22;4156;50.908;6.974;2023-06-26T13:11:40;26.90;99.90
8231;DHT22;4156;50.908;6.974;2023-06-26T13:14:06;26.90;99.90
8231;DHT22;4156;50.908;6.974;2023-06-26T13:16:31;26.90;99.90
8231;DHT22;4156;50.908;6.974;2023-06-26T13:18:58;26.90;99.90
8231;DHT22;4156;50.908;6.974;2023-06-26T13:21:24;26.90;99.90
8231;DHT22;4156;50.908;6.974;2023-06-26T13:23:49;26.90;99.90
8231;DHT22;4156;50.908;6.974;2023-06-26T13:26:15;26.90;99.90
8231;DHT22;4156;50.908;6.974;2023-06-26T13:28:41;26.90;99.90
8231;DHT22;4156;50.908;6.974;2023-06-26T13:31:06;26.80;99.80
8231;DHT22;4156;50.908;6.974;2023-06-26T13:33:32;26.90;99.90
8231;DHT22;4156;50.908;6.974;2023-06-26T13:35:58;26.90;99.90
8231;DHT22;4156;50.908;6.974;2023-06-26T13:38:24;26.90;99.90
8231;DHT22;4156;50.908;6.974;2023-06-26T13:40:54;26.90;99.90
8231;DHT22;4156;50.908;6.974;2023-06-26T13:43:22;26.90;99.90
8231;DHT22;4156;50.908;6.974;2023-06-26T13:45:49;26.90;99.90
8231;DHT22;4156;50.908;6.974;2023-06-26T13:48:14;26.90;99.90
8231;DHT22;4156;50.908;6.974;2023-06-26T13:50:40;26.90;99.80
8231;DHT22;4156;50.908;6.974;2023-06-26T13:53:06;26.90;99.80
8231;DHT22;4156;50.908;6.974;2023-06-26T13:55:32;26.80;99.40
8231;DHT22;4156;50.908;6.974;2023-06-26T13:57:59;26.80;99.20
8231;DHT22;4156;50.908;6.974;2023-06-26T14:00:24;26.80;99.50
8231;DHT22;4156;50.908;6.974;2023-06-26T14:02:50;26.80;99.50
8231;DHT22;4156;50.908;6.974;2023-06-26T14:05:16;26.80;99.40
8231;DHT22;4156;50.908;6.974;2023-06-26T14:07:44;26.80;99.00
8231;DHT22;4156;50.908;6.974;2023-06-26T14:10:09;26.80;99.20
8231;DHT22;4156;50.908;6.974;2023-06-26T14:12:35;26.80;99.10
8231;DHT22;4156;50.908;6.974;2023-06-26T14:15:00;26.80;99.50
8231;DHT22;4156;50.908;6.974;2023-06-26T14:17:26;26.80;99.30
8231;DHT22;4156;50.908;6.974;2023-06-26T14:19:52;26.80;98.80
8231;DHT22;4156;50.908;6.974;2023-06-26T14:22:18;26.80;98.70
8231;DHT22;4156;50.908;6.974;2023-06-26T14:24:44;26.80;98.50
8231;DHT22;4156;50.908;6.974;2023-06-26T14:27:10;26.80;97.70
8231;DHT22;4156;50.908;6.974;2023-06-26T14:29:36;26.80;98.20
8231;DHT22;4156;50.908;6.974;2023-06-26T14:32:03;26.80;98.00
8231;DHT22;4156;50.908;6.974;2023-06-26T14:34:28;26.80;97.50
8231;DHT22;4156;50.908;6.974;2023-06-26T14:36:55;26.90;97.30
8231;DHT22;4156;50.908;6.974;2023-06-26T14:39:20;26.80;97.80
8231;DHT22;4156;50.908;6.974;2023-06-26T14:41:46;26.80;97.90
8231;DHT22;4156;50.908;6.974;2023-06-26T14:44:13;26.80;97.60
8231;DHT22;4156;50.908;6.974;2023-06-26T14:46:39;26.80;97.60
8231;DHT22;4156;50.908;6.974;2023-06-26T14:49:04;26.80;98.30
8231;DHT22;4156;50.908;6.974;2023-06-26T14:51:30;26.70;98.30
8231;DHT22;4156;50.908;6.974;2023-06-26T14:53:55;26.80;98.30
8231;DHT22;4156;50.908;6.974;2023-06-26T14:56:21;26.70;98.50
8231;DHT22;4156;50.908;6.974;2023-06-26T14:58:46;26.80;98.20
8231;DHT22;4156;50.908;6.974;2023-06-26T15:01:12;26.80;98.30
8231;DHT22;4156;50.908;6.974;2023-06-26T15:03:41;26.70;98.60
8231;DHT22;4156;50.908;6.974;2023-06-26T15:06:06;26.70;98.50
8231;DHT22;4156;50.908;6.974;2023-06-26T15:08:32;26.80;98.40
8231;DHT22;4156;50.908;6.974;2023-06-26T15:10:57;26.70;97.80
8231;DHT22;4156;50.908;6.974;2023-06-26T15:13:23;26.70;98.40
8231;DHT22;4156;50.908;6.974;2023-06-26T15:15:48;26.70;98.50
8231;DHT22;4156;50.908;6.974;2023-06-26T15:18:15;26.70;98.40
8231;DHT22;4156;50.908;6.974;2023-06-26T15:20:40;26.70;98.30
8231;DHT22;4156;50.908;6.974;2023-06-26T15:23:06;26.60;98.10
8231;DHT22;4156;50.908;6.974;2023-06-26T15:25:31;26.70;98.00
8231;DHT22;4156;50.908;6.974;2023-06-26T15:27:57;26.70;98.10
8231;DHT22;4156;50.908;6.974;2023-06-26T15:30:22;26.70;98.50
8231;DHT22;4156;50.908;6.974;2023-06-26T15:32:48;26.70;97.80
8231;DHT22;4156;50.908;6.974;2023-06-26T15:35:13;26.70;97.30
8231;DHT22;4156;50.908;6.974;2023-06-26T15:37:39;26.70;97.40
8231;DHT22;4156;50.908;6.974;2023-06-26T15:40:05;26.70;97.30
8231;DHT22;4156;50.908;6.974;2023-06-26T15:42:31;26.60;97.50
8231;DHT22;4156;50.908;6.974;2023-06-26T15:44:57;26.60;96.20
8231;DHT22;4156;50.908;6.974;2023-06-26T15:47:22;26.60;96.20
8231;DHT22;4156;50.908;6.974;2023-06-26T15:49:48;26.60;96.30
8231;DHT22;4156;50.908;6.974;2023-06-26T15:52:13;26.60;96.80
8231;DHT22;4156;50.908;6.974;2023-06-26T15:54:39;26.50;96.60
8231;DHT22;4156;50.908;6.974;2023-06-26T15:57:04;26.50;96.60
8231;DHT22;4156;50.908;6.974;2023-06-26T15:59:30;26.50;95.90
8231;DHT22;4156;50.908;6.974;2023-06-26T16:01:55;26.50;95.90
8231;DHT22;4156;50.908;6.974;2023-06-26T16:04:21;26.50;95.60